Time,TemperatureF,DewpointF,PressureIn,WindDirection,WindDirectionDegrees,WindSpeedMPH,WindSpeedGustMPH,Humidity,HourlyPrecipIn,Conditions,Clouds,dailyrainin,SoftwareType,DateUTC
2013-12-02 00:00:00,23.1,21.4,29.85,SE,146,0.0,3.0,93,0.00,,SKC,0.00,VWS V14.01,2013-12-02 06:00:00,
2013-12-02 00:06:00,23.3,21.6,29.85,SE,146,0.0,0.0,93,0.00,,SKC,0.00,VWS V14.01,2013-12-02 06:06:00,
2013-12-02 00:11:00,23.6,21.9,29.85,SE,146,0.0,1.0,93,0.00,,SKC,0.00,VWS V14.01,2013-12-02 06:11:00,
2013-12-02 00:16:00,23.6,21.9,29.85,SE,146,0.0,1.0,93,0.00,,SKC,0.00,VWS V14.01,2013-12-02 06:16:00,
2013-12-02 00:21:00,23.6,21.9,29.85,SE,146,0.0,1.0,93,0.00,,SKC,0.00,VWS V14.01,2013-12-02 06:21:00,
2013-12-02 00:26:00,23.6,21.9,29.85,SE,146,0.0,1.0,93,0.00,,SKC,0.00,VWS V14.01,2013-12-02 06:26:00,
2013-12-02 00:30:00,23.6,21.9,29.85,SE,146,0.0,1.0,93,0.00,,SKC,0.00,VWS V14.01,2013-12-02 06:30:00,
2013-12-02 00:31:00,23.6,21.9,29.85,SE,146,0.0,0.0,93,0.00,,SKC,0.00,VWS V14.01,2013-12-02 06:31:00,
2013-12-02 00:36:00,23.6,21.9,29.84,SE,146,0.0,0.0,93,0.00,,SKC,0.00,VWS V14.01,2013-12-02 06:36:00,
2013-12-02 00:41:00,23.7,22.0,29.84,SE,146,0.0,1.0,93,0.00,,SKC,0.00,VWS V14.01,2013-12-02 06:41:00,
2013-12-02 00:46:00,23.9,22.2,29.84,SE,146,0.0,1.0,93,0.00,,SKC,0.00,VWS V14.01,2013-12-02 06:46:00,
2013-12-02 00:51:00,23.9,22.2,29.84,SE,146,0.0,1.0,93,0.00,,SKC,0.00,VWS V14.01,2013-12-02 06:51:00,
2013-12-02 00:56:00,24.0,22.3,29.84,SE,146,0.0,2.0,93,0.00,,SKC,0.00,VWS V14.01,2013-12-02 06:56:00,
2013-12-02 01:00:00,24.0,22.0,29.83,SE,146,0.0,2.0,92,0.00,,SKC,0.00,VWS V14.01,2013-12-02 07:00:00,
2013-12-02 01:01:00,24.0,22.0,29.83,SE,146,0.0,0.0,92,0.00,,SKC,0.00,VWS V14.01,2013-12-02 07:01:00,
2013-12-02 01:06:00,24.2,22.2,29.83,SE,146,0.0,2.0,92,0.00,,SKC,0.00,VWS V14.01,2013-12-02 07:06:00,
2013-12-02 01:11:00,24.2,22.5,29.83,SE,146,0.0,3.0,93,0.00,,SKC,0.00,VWS V14.01,2013-12-02 07:11:00,
2013-12-02 01:17:00,24.2,22.2,29.83,SE,146,1.0,3.0,92,0.00,,SKC,0.00,VWS V14.01,2013-12-02 07:17:00,
2013-12-02 01:22:00,24.3,22.3,29.83,SE,146,0.0,4.0,92,0.00,,SKC,0.00,VWS V14.01,2013-12-02 07:22:00,
2013-12-02 01:27:00,24.3,22.3,29.83,SE,146,0.0,4.0,92,0.00,,SKC,0.00,VWS V14.01,2013-12-02 07:27:00,
2013-12-02 01:30:00,24.3,22.3,29.83,SE,146,3.0,4.0,92,0.00,,SKC,0.00,VWS V14.01,2013-12-02 07:30:00,
2013-12-02 01:32:00,24.3,22.3,29.83,SE,146,4.0,4.0,92,0.00,,SKC,0.00,VWS V14.01,2013-12-02 07:32:00,
2013-12-02 01:37:00,24.3,22.3,29.83,SE,146,1.0,4.0,92,0.00,,SKC,0.00,VWS V14.01,2013-12-02 07:37:00,
2013-12-02 01:42:00,24.3,22.3,29.83,SE,146,1.0,4.0,92,0.00,,SKC,0.00,VWS V14.01,2013-12-02 07:42:00,
2013-12-02 01:47:00,24.4,22.4,29.82,SE,146,0.0,4.0,92,0.00,,SKC,0.00,VWS V14.01,2013-12-02 07:47:00,
2013-12-02 01:52:00,24.4,22.4,29.82,SE,146,2.0,4.0,92,0.00,,SKC,0.00,VWS V14.01,2013-12-02 07:52:00,
2013-12-02 01:57:00,24.5,22.5,29.82,SE,146,2.0,4.0,92,0.00,,SKC,0.00,VWS V14.01,2013-12-02 07:57:00,
2013-12-02 02:00:00,24.5,22.5,29.82,SE,146,3.0,5.0,92,0.00,,SKC,0.00,VWS V14.01,2013-12-02 08:00:00,
2013-12-02 02:02:00,24.6,22.6,29.82,SE,146,2.0,3.0,92,0.00,,SKC,0.00,VWS V14.01,2013-12-02 08:02:00,
2013-12-02 02:07:00,24.6,22.6,29.81,SE,146,5.0,5.0,92,0.00,,SKC,0.00,VWS V14.01,2013-12-02 08:07:00,
2013-12-02 02:12:00,24.6,22.6,29.81,SE,146,2.0,5.0,92,0.00,,SKC,0.00,VWS V14.01,2013-12-02 08:12:00,
2013-12-02 02:17:00,24.6,22.6,29.81,SE,146,2.0,5.0,92,0.00,,SKC,0.00,VWS V14.01,2013-12-02 08:17:00,
2013-12-02 02:22:00,24.5,22.5,29.81,SE,146,0.0,5.0,92,0.00,,SKC,0.00,VWS V14.01,2013-12-02 08:22:00,
2013-12-02 02:27:00,24.6,22.6,29.81,SE,146,4.0,5.0,92,0.00,,SKC,0.00,VWS V14.01,2013-12-02 08:27:00,
2013-12-02 02:30:00,24.6,22.6,29.81,SE,146,3.0,5.0,92,0.00,,SKC,0.00,VWS V14.01,2013-12-02 08:30:00,
2013-12-02 02:32:00,24.6,22.6,29.81,SE,146,2.0,3.0,92,0.00,,SKC,0.00,VWS V14.01,2013-12-02 08:32:00,
2013-12-02 02:37:00,24.6,22.6,29.81,SE,146,2.0,5.0,92,0.00,,SKC,0.00,VWS V14.01,2013-12-02 08:37:00,
2013-12-02 02:42:00,24.6,22.6,29.81,SE,146,4.0,5.0,92,0.00,,SKC,0.00,VWS V14.01,2013-12-02 08:42:00,
2013-12-02 02:47:00,24.7,22.7,29.80,SE,146,4.0,6.0,92,0.00,,SKC,0.00,VWS V14.01,2013-12-02 08:47:00,
2013-12-02 02:52:00,24.7,22.7,29.80,SE,146,4.0,6.0,92,0.00,,SKC,0.00,VWS V14.01,2013-12-02 08:52:00,
2013-12-02 02:57:00,24.8,22.8,29.80,SE,146,4.0,6.0,92,0.00,,SKC,0.00,VWS V14.01,2013-12-02 08:57:00,
2013-12-02 03:00:00,24.8,22.8,29.80,SE,146,4.0,6.0,92,0.00,,SKC,0.00,VWS V14.01,2013-12-02 09:00:00,
2013-12-02 03:02:00,24.8,22.8,29.80,SE,146,5.0,5.0,92,0.00,,SKC,0.00,VWS V14.01,2013-12-02 09:02:00,
2013-12-02 03:07:00,24.9,22.9,29.80,SE,146,3.0,5.0,92,0.00,,SKC,0.00,VWS V14.01,2013-12-02 09:07:00,
2013-12-02 03:12:00,24.9,22.9,29.79,SE,146,5.0,5.0,92,0.00,,SKC,0.00,VWS V14.01,2013-12-02 09:12:00,
2013-12-02 03:17:00,24.9,22.6,29.79,SE,146,4.0,5.0,91,0.00,,SKC,0.00,VWS V14.01,2013-12-02 09:17:00,
2013-12-02 03:22:00,24.9,22.6,29.79,SE,146,2.0,5.0,91,0.00,,SKC,0.00,VWS V14.01,2013-12-02 09:22:00,
2013-12-02 03:27:00,24.9,22.6,29.79,SE,146,2.0,5.0,91,0.00,,SKC,0.00,VWS V14.01,2013-12-02 09:27:00,
2013-12-02 03:30:00,24.9,22.6,29.79,SE,146,5.0,5.0,91,0.00,,SKC,0.00,VWS V14.01,2013-12-02 09:30:00,
2013-12-02 03:32:00,24.9,22.6,29.78,SE,146,5.0,6.0,91,0.00,,SKC,0.00,VWS V14.01,2013-12-02 09:32:00,
2013-12-02 03:37:00,24.9,22.6,29.78,SE,146,4.0,6.0,91,0.00,,SKC,0.00,VWS V14.01,2013-12-02 09:37:00,
2013-12-02 03:42:00,24.9,22.6,29.78,SE,146,3.0,6.0,91,0.00,,SKC,0.00,VWS V14.01,2013-12-02 09:42:00,
2013-12-02 03:47:00,25.0,22.8,29.78,SE,146,3.0,6.0,91,0.00,,SKC,0.00,VWS V14.01,2013-12-02 09:47:00,
2013-12-02 03:52:00,25.0,22.8,29.78,SE,146,2.0,6.0,91,0.00,,SKC,0.00,VWS V14.01,2013-12-02 09:52:00,
2013-12-02 03:57:00,25.1,22.9,29.78,SE,146,2.0,6.0,91,0.00,,SKC,0.00,VWS V14.01,2013-12-02 09:57:00,
2013-12-02 04:00:00,25.1,22.9,29.78,SE,146,4.0,6.0,91,0.00,,SKC,0.00,VWS V14.01,2013-12-02 10:00:00,
2013-12-02 04:02:00,25.2,23.0,29.78,SE,146,2.0,4.0,91,0.00,,SKC,0.00,VWS V14.01,2013-12-02 10:02:00,
2013-12-02 04:07:00,25.2,23.0,29.77,SE,146,4.0,5.0,91,0.00,,SKC,0.00,VWS V14.01,2013-12-02 10:07:00,
2013-12-02 04:12:00,25.3,23.0,29.77,SE,146,2.0,5.0,91,0.00,,SKC,0.00,VWS V14.01,2013-12-02 10:12:00,
2013-12-02 04:18:00,25.3,23.0,29.77,SE,146,2.0,5.0,91,0.00,,SKC,0.00,VWS V14.01,2013-12-02 10:18:00,
2013-12-02 04:23:00,25.3,23.0,29.77,SE,146,4.0,5.0,91,0.00,,SKC,0.00,VWS V14.01,2013-12-02 10:23:00,
2013-12-02 04:28:00,25.2,23.0,29.77,SE,146,2.0,5.0,91,0.00,,SKC,0.00,VWS V14.01,2013-12-02 10:28:00,
2013-12-02 04:30:00,25.2,23.2,29.76,SE,146,0.0,5.0,92,0.00,,SKC,0.00,VWS V14.01,2013-12-02 10:30:00,
2013-12-02 04:33:00,25.2,23.2,29.76,SE,146,0.0,0.0,92,0.00,,SKC,0.00,VWS V14.01,2013-12-02 10:33:00,
2013-12-02 04:38:00,25.3,23.3,29.76,SE,146,2.0,4.0,92,0.00,,SKC,0.00,VWS V14.01,2013-12-02 10:38:00,
2013-12-02 04:43:00,25.3,23.3,29.76,SE,146,2.0,4.0,92,0.00,,SKC,0.00,VWS V14.01,2013-12-02 10:43:00,
2013-12-02 04:48:00,25.3,23.3,29.75,SE,146,4.0,5.0,92,0.00,,SKC,0.00,VWS V14.01,2013-12-02 10:48:00,
2013-12-02 04:53:00,25.4,23.4,29.75,SE,146,3.0,5.0,92,0.00,,SKC,0.00,VWS V14.01,2013-12-02 10:53:00,
2013-12-02 04:58:00,25.4,23.4,29.75,SE,146,6.0,6.0,92,0.00,,SKC,0.00,VWS V14.01,2013-12-02 10:58:00,
2013-12-02 05:00:00,25.4,23.4,29.75,SE,146,5.0,6.0,92,0.00,,SKC,0.00,VWS V14.01,2013-12-02 11:00:00,
2013-12-02 05:03:00,25.5,23.5,29.75,SE,146,6.0,6.0,92,0.00,,SKC,0.00,VWS V14.01,2013-12-02 11:03:00,
2013-12-02 05:08:00,25.6,23.9,29.75,SE,146,5.0,7.0,93,0.00,,SKC,0.00,VWS V14.01,2013-12-02 11:08:00,
2013-12-02 05:13:00,25.6,23.9,29.75,SE,146,6.0,7.0,93,0.00,,SKC,0.00,VWS V14.01,2013-12-02 11:13:00,
2013-12-02 05:18:00,25.6,23.9,29.74,SE,146,5.0,7.0,93,0.00,,SKC,0.00,VWS V14.01,2013-12-02 11:18:00,
2013-12-02 05:23:00,25.7,24.0,29.74,SE,146,6.0,7.0,93,0.00,,SKC,0.00,VWS V14.01,2013-12-02 11:23:00,
2013-12-02 05:28:00,25.7,24.0,29.73,ESE,119,6.0,8.0,93,0.00,,SKC,0.00,VWS V14.01,2013-12-02 11:28:00,
2013-12-02 05:30:00,25.8,24.1,29.73,East,98,6.0,8.0,93,0.00,,SKC,0.00,VWS V14.01,2013-12-02 11:30:00,
2013-12-02 05:33:00,25.8,24.1,29.73,East,92,8.0,8.0,93,0.00,,SKC,0.00,VWS V14.01,2013-12-02 11:33:00,
2013-12-02 05:38:00,25.8,24.1,29.73,East,88,8.0,8.0,93,0.00,,SKC,0.00,VWS V14.01,2013-12-02 11:38:00,
2013-12-02 05:43:00,25.9,24.2,29.73,East,87,8.0,9.0,93,0.00,,SKC,0.00,VWS V14.01,2013-12-02 11:43:00,
2013-12-02 05:48:00,26.0,24.3,29.72,East,87,8.0,9.0,93,0.00,,SKC,0.00,VWS V14.01,2013-12-02 11:48:00,
2013-12-02 05:53:00,26.1,24.4,29.72,East,87,7.0,9.0,93,0.00,,SKC,0.00,VWS V14.01,2013-12-02 11:53:00,
2013-12-02 05:58:00,26.1,24.4,29.72,East,86,9.0,10.0,93,0.00,,SKC,0.00,VWS V14.01,2013-12-02 11:58:00,
2013-12-02 06:00:00,26.1,24.4,29.71,East,86,7.0,10.0,93,0.00,,SKC,0.00,VWS V14.01,2013-12-02 12:00:00,
2013-12-02 06:03:00,26.1,24.4,29.71,East,85,9.0,11.0,93,0.00,,SKC,0.00,VWS V14.01,2013-12-02 12:03:00,
2013-12-02 06:08:00,26.1,24.4,29.72,East,84,6.0,12.0,93,0.00,,SKC,0.00,VWS V14.01,2013-12-02 12:08:00,
2013-12-02 06:13:00,26.0,24.3,29.72,East,85,4.0,12.0,93,0.00,,SKC,0.00,VWS V14.01,2013-12-02 12:13:00,
2013-12-02 06:18:00,26.0,24.3,29.72,East,85,5.0,12.0,93,0.00,,SKC,0.00,VWS V14.01,2013-12-02 12:18:00,
2013-12-02 06:23:00,26.0,24.3,29.72,East,85,7.0,12.0,93,0.00,,SKC,0.00,VWS V14.01,2013-12-02 12:23:00,
2013-12-02 06:28:00,26.0,24.3,29.72,East,85,4.0,12.0,93,0.00,,SKC,0.00,VWS V14.01,2013-12-02 12:28:00,
2013-12-02 06:30:00,25.9,24.2,29.72,East,85,4.0,12.0,93,0.00,,SKC,0.00,VWS V14.01,2013-12-02 12:30:00,
2013-12-02 06:33:00,25.9,24.2,29.72,East,85,5.0,5.0,93,0.00,,SKC,0.00,VWS V14.01,2013-12-02 12:33:00,
2013-12-02 06:38:00,25.8,24.1,29.72,East,85,5.0,5.0,93,0.00,,SKC,0.00,VWS V14.01,2013-12-02 12:38:00,
2013-12-02 06:43:00,25.8,24.1,29.72,East,85,5.0,6.0,93,0.00,,SKC,0.00,VWS V14.01,2013-12-02 12:43:00,
2013-12-02 06:48:00,25.7,24.0,29.72,East,85,4.0,6.0,93,0.00,,SKC,0.00,VWS V14.01,2013-12-02 12:48:00,
2013-12-02 06:54:00,25.7,24.0,29.72,East,85,5.0,6.0,93,0.00,,SKC,0.00,VWS V14.01,2013-12-02 12:54:00,
2013-12-02 06:59:00,25.6,23.9,29.72,East,85,4.0,6.0,93,0.00,,SKC,0.00,VWS V14.01,2013-12-02 12:59:00,
2013-12-02 07:00:00,25.7,24.0,29.72,East,85,2.0,6.0,93,0.00,,SKC,0.00,VWS V14.01,2013-12-02 13:00:00,
2013-12-02 07:04:00,25.7,24.0,29.72,East,85,4.0,5.0,93,0.00,,SKC,0.00,VWS V14.01,2013-12-02 13:04:00,
2013-12-02 07:09:00,25.7,24.0,29.71,East,85,5.0,6.0,93,0.00,,SKC,0.00,VWS V14.01,2013-12-02 13:09:00,
2013-12-02 07:14:00,25.7,24.0,29.71,East,85,5.0,6.0,93,0.00,,SKC,0.00,VWS V14.01,2013-12-02 13:14:00,
2013-12-02 07:19:00,25.8,24.1,29.71,East,85,5.0,6.0,93,0.00,,SKC,0.00,VWS V14.01,2013-12-02 13:19:00,
2013-12-02 07:24:00,25.8,24.1,29.71,East,85,2.0,6.0,93,0.00,,SKC,0.00,VWS V14.01,2013-12-02 13:24:00,
2013-12-02 07:29:00,25.9,24.2,29.71,East,85,2.0,6.0,93,0.00,,SKC,0.00,VWS V14.01,2013-12-02 13:29:00,
2013-12-02 07:30:00,25.9,24.2,29.71,East,85,4.0,6.0,93,0.00,,SKC,0.00,VWS V14.01,2013-12-02 13:30:00,
2013-12-02 07:34:00,25.9,24.2,29.71,East,85,4.0,5.0,93,0.00,,SKC,0.00,VWS V14.01,2013-12-02 13:34:00,
2013-12-02 07:39:00,26.0,24.3,29.71,East,85,2.0,5.0,93,0.00,,SKC,0.00,VWS V14.01,2013-12-02 13:39:00,
2013-12-02 07:44:00,26.0,24.3,29.71,East,85,2.0,5.0,93,0.00,,SKC,0.00,VWS V14.01,2013-12-02 13:44:00,
2013-12-02 07:49:00,26.1,24.4,29.71,East,85,2.0,6.0,93,0.00,,SKC,0.00,VWS V14.01,2013-12-02 13:49:00,
2013-12-02 07:54:00,26.2,24.5,29.71,East,85,4.0,6.0,93,0.00,,SKC,0.00,VWS V14.01,2013-12-02 13:54:00,
2013-12-02 07:59:00,26.2,24.5,29.71,East,85,2.0,6.0,93,0.00,,SKC,0.00,VWS V14.01,2013-12-02 13:59:00,
2013-12-02 08:00:00,26.2,24.5,29.71,East,85,4.0,6.0,93,0.00,,SKC,0.00,VWS V14.01,2013-12-02 14:00:00,
2013-12-02 08:04:00,26.3,24.6,29.71,East,85,4.0,4.0,93,0.00,,SKC,0.00,VWS V14.01,2013-12-02 14:04:00,
2013-12-02 08:09:00,26.5,24.8,29.71,East,85,4.0,5.0,93,0.00,,SKC,0.00,VWS V14.01,2013-12-02 14:09:00,
2013-12-02 08:14:00,26.5,24.8,29.71,East,85,4.0,5.0,93,0.00,,SKC,0.00,VWS V14.01,2013-12-02 14:14:00,
2013-12-02 08:20:00,26.6,24.9,29.71,East,85,4.0,5.0,93,0.00,,SKC,0.00,VWS V14.01,2013-12-02 14:20:00,
2013-12-02 08:25:00,26.8,25.0,29.71,East,85,4.0,6.0,93,0.00,,SKC,0.00,VWS V14.01,2013-12-02 14:25:00,
2013-12-02 08:30:00,26.9,25.1,29.70,East,85,5.0,6.0,93,0.00,,SKC,0.00,VWS V14.01,2013-12-02 14:30:00,
2013-12-02 08:35:00,27.0,25.2,29.70,East,85,6.0,6.0,93,0.00,,SKC,0.00,VWS V14.01,2013-12-02 14:35:00,
2013-12-02 08:40:00,27.2,25.5,29.70,East,85,6.0,7.0,93,0.00,,SKC,0.00,VWS V14.01,2013-12-02 14:40:00,
2013-12-02 08:45:00,27.4,25.6,29.70,East,85,6.0,8.0,93,0.00,,SKC,0.00,VWS V14.01,2013-12-02 14:45:00,
2013-12-02 08:50:00,27.5,25.8,29.69,East,85,5.0,8.0,93,0.00,,SKC,0.00,VWS V14.01,2013-12-02 14:50:00,
2013-12-02 08:55:00,27.7,25.9,29.69,East,85,5.0,8.0,93,0.00,,SKC,0.00,VWS V14.01,2013-12-02 14:55:00,
2013-12-02 09:00:00,27.8,26.0,29.69,East,85,4.0,8.0,93,0.00,,SKC,0.00,VWS V14.01,2013-12-02 15:00:00,
2013-12-02 09:05:00,28.2,26.4,29.69,East,85,8.0,8.0,93,0.00,,SKC,0.00,VWS V14.01,2013-12-02 15:05:00,
2013-12-02 09:10:00,28.3,26.5,29.69,East,85,5.0,9.0,93,0.00,,SKC,0.00,VWS V14.01,2013-12-02 15:10:00,
2013-12-02 09:15:00,28.3,26.5,29.69,East,85,7.0,9.0,93,0.00,,SKC,0.00,VWS V14.01,2013-12-02 15:15:00,
2013-12-02 09:20:00,28.4,26.6,29.69,East,85,7.0,9.0,93,0.00,,SKC,0.00,VWS V14.01,2013-12-02 15:20:00,
2013-12-02 09:25:00,28.4,26.6,29.69,East,85,7.0,10.0,93,0.00,,SKC,0.00,VWS V14.01,2013-12-02 15:25:00,
2013-12-02 09:30:00,28.5,26.7,29.68,East,85,6.0,10.0,93,0.00,,SKC,0.00,VWS V14.01,2013-12-02 15:30:00,
2013-12-02 09:35:00,28.6,26.8,29.68,East,85,6.0,8.0,93,0.00,,SKC,0.00,VWS V14.01,2013-12-02 15:35:00,
2013-12-02 09:40:00,28.7,26.9,29.68,East,85,7.0,8.0,93,0.00,,SKC,0.00,VWS V14.01,2013-12-02 15:40:00,
2013-12-02 09:45:00,28.7,26.9,29.68,East,85,8.0,9.0,93,0.00,,SKC,0.00,VWS V14.01,2013-12-02 15:45:00,
2013-12-02 09:50:00,28.8,27.0,29.68,East,85,6.0,9.0,93,0.00,,SKC,0.00,VWS V14.01,2013-12-02 15:50:00,
2013-12-02 09:55:00,28.9,27.1,29.68,East,85,6.0,9.0,93,0.00,,SKC,0.00,VWS V14.01,2013-12-02 15:55:00,
2013-12-02 10:00:00,29.0,27.2,29.68,East,85,7.0,9.0,93,0.00,,SKC,0.00,VWS V14.01,2013-12-02 16:00:00,
2013-12-02 10:05:00,29.1,27.3,29.68,East,85,7.0,10.0,93,0.00,,SKC,0.00,VWS V14.01,2013-12-02 16:05:00,
2013-12-02 10:10:00,29.2,27.4,29.67,East,85,7.0,10.0,93,0.00,,SKC,0.00,VWS V14.01,2013-12-02 16:10:00,
2013-12-02 10:15:00,29.2,27.7,29.67,East,85,6.0,10.0,94,0.00,,SKC,0.00,VWS V14.01,2013-12-02 16:15:00,
2013-12-02 10:21:00,29.3,27.8,29.67,East,85,6.0,10.0,94,0.00,,SKC,0.00,VWS V14.01,2013-12-02 16:21:00,
2013-12-02 10:26:00,29.3,27.8,29.67,East,85,7.0,10.0,94,0.00,,SKC,0.00,VWS V14.01,2013-12-02 16:26:00,
2013-12-02 10:30:00,29.4,27.9,29.67,East,85,7.0,10.0,94,0.00,,SKC,0.00,VWS V14.01,2013-12-02 16:30:00,
2013-12-02 10:31:00,29.5,28.0,29.67,East,85,7.0,10.0,94,0.00,,SKC,0.00,VWS V14.01,2013-12-02 16:31:00,
2013-12-02 10:36:00,29.5,28.0,29.66,East,86,7.0,9.0,94,0.00,,SKC,0.00,VWS V14.01,2013-12-02 16:36:00,
2013-12-02 10:41:00,29.6,28.1,29.66,East,86,10.0,10.0,94,0.00,,SKC,0.00,VWS V14.01,2013-12-02 16:41:00,
2013-12-02 10:46:00,29.7,28.2,29.66,East,87,10.0,11.0,94,0.00,,SKC,0.00,VWS V14.01,2013-12-02 16:46:00,
2013-12-02 10:51:00,29.7,28.2,29.66,East,88,10.0,13.0,94,0.00,,SKC,0.00,VWS V14.01,2013-12-02 16:51:00,
2013-12-02 10:56:00,29.8,28.3,29.65,East,88,8.0,13.0,94,0.00,,SKC,0.00,VWS V14.01,2013-12-02 16:56:00,
2013-12-02 11:00:00,29.8,28.3,29.65,East,87,10.0,13.0,94,0.00,,SKC,0.00,VWS V14.01,2013-12-02 17:00:00,
2013-12-02 11:01:00,29.8,28.3,29.65,East,88,8.0,13.0,94,0.00,,SKC,0.00,VWS V14.01,2013-12-02 17:01:00,
2013-12-02 11:06:00,29.9,28.4,29.65,East,86,8.0,10.0,94,0.00,,SKC,0.00,VWS V14.01,2013-12-02 17:06:00,
2013-12-02 11:11:00,30.1,28.6,29.65,East,88,10.0,12.0,94,0.00,,SKC,0.00,VWS V14.01,2013-12-02 17:11:00,
2013-12-02 11:16:00,30.1,28.6,29.64,East,87,12.0,12.0,94,0.00,,SKC,0.00,VWS V14.01,2013-12-02 17:16:00,
2013-12-02 11:21:00,30.1,28.8,29.64,East,88,12.0,14.0,95,0.00,,SKC,0.00,VWS V14.01,2013-12-02 17:21:00,
2013-12-02 11:26:00,30.2,28.9,29.64,East,90,10.0,14.0,95,0.00,,SKC,0.00,VWS V14.01,2013-12-02 17:26:00,
2013-12-02 11:30:00,30.3,29.0,29.63,East,88,8.0,14.0,95,0.00,,SKC,0.00,VWS V14.01,2013-12-02 17:30:00,
2013-12-02 11:31:00,30.3,29.0,29.63,East,88,10.0,14.0,95,0.00,,SKC,0.00,VWS V14.01,2013-12-02 17:31:00,
2013-12-02 11:36:00,30.4,28.9,29.63,East,90,6.0,11.0,94,0.00,,SKC,0.00,VWS V14.01,2013-12-02 17:36:00,
2013-12-02 11:41:00,30.5,29.0,29.63,East,92,8.0,11.0,94,0.00,,SKC,0.00,VWS V14.01,2013-12-02 17:41:00,
2013-12-02 11:46:00,30.6,29.1,29.63,East,92,7.0,11.0,94,0.00,,SKC,0.00,VWS V14.01,2013-12-02 17:46:00,
2013-12-02 11:51:00,30.7,29.4,29.63,East,93,9.0,12.0,95,0.00,,SKC,0.00,VWS V14.01,2013-12-02 17:51:00,
2013-12-02 11:56:00,30.9,29.6,29.63,East,93,8.0,12.0,95,0.00,,SKC,0.00,VWS V14.01,2013-12-02 17:56:00,
2013-12-02 12:00:00,31.0,29.7,29.62,East,93,8.0,12.0,95,0.00,,SKC,0.00,VWS V14.01,2013-12-02 18:00:00,
2013-12-02 12:01:00,31.0,29.7,29.62,East,93,8.0,12.0,95,0.00,,SKC,0.00,VWS V14.01,2013-12-02 18:01:00,
2013-12-02 12:06:00,31.1,29.8,29.62,East,94,8.0,9.0,95,0.00,,SKC,0.00,VWS V14.01,2013-12-02 18:06:00,
2013-12-02 12:11:00,31.2,29.9,29.62,ESE,103,9.0,12.0,95,0.00,,SKC,0.00,VWS V14.01,2013-12-02 18:11:00,
2013-12-02 12:16:00,31.5,30.2,29.62,ESE,105,7.0,12.0,95,0.00,,SKC,0.00,VWS V14.01,2013-12-02 18:16:00,
2013-12-02 12:22:00,31.5,30.2,29.62,ESE,105,6.0,12.0,95,0.00,,SKC,0.00,VWS V14.01,2013-12-02 18:22:00,
2013-12-02 12:27:00,31.6,30.3,29.62,ESE,105,7.0,12.0,95,0.00,,SKC,0.00,VWS V14.01,2013-12-02 18:27:00,
2013-12-02 12:30:00,31.6,30.3,29.62,ESE,105,6.0,12.0,95,0.00,,SKC,0.00,VWS V14.01,2013-12-02 18:30:00,
2013-12-02 12:32:00,31.6,30.3,29.62,ESE,105,5.0,6.0,95,0.00,,SKC,0.00,VWS V14.01,2013-12-02 18:32:00,
2013-12-02 12:37:00,31.7,30.2,29.61,ESE,105,8.0,8.0,94,0.00,,SKC,0.00,VWS V14.01,2013-12-02 18:37:00,
2013-12-02 12:42:00,31.8,30.3,29.61,ESE,105,6.0,9.0,94,0.00,,SKC,0.00,VWS V14.01,2013-12-02 18:42:00,
2013-12-02 12:47:00,31.9,30.6,29.61,ESE,105,5.0,9.0,95,0.00,,SKC,0.00,VWS V14.01,2013-12-02 18:47:00,
2013-12-02 12:52:00,31.9,30.6,29.61,ESE,105,6.0,9.0,95,0.00,,SKC,0.00,VWS V14.01,2013-12-02 18:52:00,
2013-12-02 12:57:00,32.0,30.7,29.60,ESE,105,6.0,9.0,95,0.00,,SKC,0.00,VWS V14.01,2013-12-02 18:57:00,
2013-12-02 13:00:00,32.1,30.8,29.60,ESE,105,7.0,9.0,95,0.00,,SKC,0.00,VWS V14.01,2013-12-02 19:00:00,
2013-12-02 13:02:00,32.1,30.6,29.60,ESE,105,7.0,7.0,94,0.00,,SKC,0.00,VWS V14.01,2013-12-02 19:02:00,
2013-12-02 13:07:00,32.1,30.6,29.60,ESE,105,10.0,10.0,94,0.00,,SKC,0.00,VWS V14.01,2013-12-02 19:07:00,
2013-12-02 13:12:00,32.2,30.7,29.59,ESE,105,7.0,11.0,94,0.00,,SKC,0.00,VWS V14.01,2013-12-02 19:12:00,
2013-12-02 13:17:00,32.3,30.8,29.59,ESE,105,9.0,11.0,94,0.01,,SKC,0.01,VWS V14.01,2013-12-02 19:17:00,
2013-12-02 13:22:00,32.4,30.9,29.59,East,101,7.0,11.0,94,0.01,,SKC,0.01,VWS V14.01,2013-12-02 19:22:00,
2013-12-02 13:27:00,32.5,31.0,29.59,East,100,10.0,12.0,94,0.01,,SKC,0.01,VWS V14.01,2013-12-02 19:27:00,
2013-12-02 13:30:00,32.5,31.0,29.59,East,101,8.0,12.0,94,0.01,,SKC,0.01,VWS V14.01,2013-12-02 19:30:00,
2013-12-02 13:32:00,32.5,31.0,29.59,East,100,8.0,10.0,94,0.01,,SKC,0.01,VWS V14.01,2013-12-02 19:32:00,
2013-12-02 13:37:00,32.6,31.1,29.58,East,100,7.0,10.0,94,0.01,,SKC,0.01,VWS V14.01,2013-12-02 19:37:00,
2013-12-02 13:42:00,32.6,31.1,29.58,East,99,9.0,12.0,94,0.01,,SKC,0.01,VWS V14.01,2013-12-02 19:42:00,
2013-12-02 13:47:00,32.6,31.1,29.58,East,99,9.0,12.0,94,0.01,,SKC,0.01,VWS V14.01,2013-12-02 19:47:00,
2013-12-02 13:52:00,32.6,31.1,29.57,East,98,9.0,12.0,94,0.01,,SKC,0.01,VWS V14.01,2013-12-02 19:52:00,
2013-12-02 13:57:00,32.7,31.2,29.57,East,96,10.0,12.0,94,0.01,,SKC,0.01,VWS V14.01,2013-12-02 19:57:00,
2013-12-02 14:00:00,32.7,31.2,29.57,East,94,12.0,13.0,94,0.01,,SKC,0.01,VWS V14.01,2013-12-02 20:00:00,
2013-12-02 14:02:00,32.7,31.2,29.57,East,96,10.0,12.0,94,0.01,,SKC,0.01,VWS V14.01,2013-12-02 20:02:00,
2013-12-02 14:07:00,32.8,31.3,29.57,East,94,10.0,13.0,94,0.01,,SKC,0.01,VWS V14.01,2013-12-02 20:07:00,
2013-12-02 14:12:00,32.8,31.3,29.56,East,90,11.0,13.0,94,0.01,,SKC,0.01,VWS V14.01,2013-12-02 20:12:00,
2013-12-02 14:17:00,32.9,31.4,29.56,East,88,11.0,13.0,94,0.01,,SKC,0.01,VWS V14.01,2013-12-02 20:17:00,
2013-12-02 14:22:00,32.9,31.4,29.56,East,87,10.0,13.0,94,0.01,,SKC,0.01,VWS V14.01,2013-12-02 20:22:00,
2013-12-02 14:27:00,32.9,31.4,29.56,East,87,7.0,13.0,94,0.01,,SKC,0.01,VWS V14.01,2013-12-02 20:27:00,
2013-12-02 14:30:00,33.0,31.5,29.56,East,88,9.0,13.0,94,0.01,,SKC,0.01,VWS V14.01,2013-12-02 20:30:00,
2013-12-02 14:32:00,33.0,31.5,29.56,East,87,9.0,9.0,94,0.00,,SKC,0.01,VWS V14.01,2013-12-02 20:32:00,
2013-12-02 14:37:00,33.0,31.5,29.56,East,86,8.0,10.0,94,0.00,,SKC,0.01,VWS V14.01,2013-12-02 20:37:00,
2013-12-02 14:42:00,33.0,31.5,29.56,East,86,7.0,10.0,94,0.00,,SKC,0.01,VWS V14.01,2013-12-02 20:42:00,
2013-12-02 14:47:00,33.0,31.5,29.56,East,86,7.0,10.0,94,0.00,,SKC,0.01,VWS V14.01,2013-12-02 20:47:00,
2013-12-02 14:52:00,33.1,31.6,29.57,East,87,6.0,11.0,94,0.00,,SKC,0.01,VWS V14.01,2013-12-02 20:52:00,
2013-12-02 14:57:00,33.1,31.6,29.57,East,88,7.0,12.0,94,0.00,,SKC,0.01,VWS V14.01,2013-12-02 20:57:00,
2013-12-02 15:00:00,33.2,31.7,29.57,East,89,7.0,12.0,94,0.00,,SKC,0.01,VWS V14.01,2013-12-02 21:00:00,
2013-12-02 15:02:00,33.2,31.7,29.57,East,89,8.0,8.0,94,0.00,,SKC,0.01,VWS V14.01,2013-12-02 21:02:00,
2013-12-02 15:07:00,33.2,31.7,29.57,East,89,9.0,10.0,94,0.00,,SKC,0.01,VWS V14.01,2013-12-02 21:07:00,
2013-12-02 15:12:00,33.2,31.7,29.57,East,89,10.0,10.0,94,0.00,,SKC,0.01,VWS V14.01,2013-12-02 21:12:00,
2013-12-02 15:18:00,33.2,31.7,29.57,East,90,8.0,11.0,94,0.00,,SKC,0.01,VWS V14.01,2013-12-02 21:18:00,
2013-12-02 15:23:00,33.2,31.4,29.57,East,90,10.0,12.0,93,0.00,,SKC,0.01,VWS V14.01,2013-12-02 21:23:00,
2013-12-02 15:28:00,33.2,31.4,29.57,East,90,9.0,12.0,93,0.00,,SKC,0.01,VWS V14.01,2013-12-02 21:28:00,
2013-12-02 15:30:00,33.2,31.4,29.57,East,90,8.0,12.0,93,0.00,,SKC,0.01,VWS V14.01,2013-12-02 21:30:00,
2013-12-02 15:33:00,33.2,31.4,29.57,East,90,9.0,10.0,93,0.00,,SKC,0.01,VWS V14.01,2013-12-02 21:33:00,
2013-12-02 15:38:00,33.2,31.4,29.57,East,91,8.0,11.0,93,0.00,,SKC,0.01,VWS V14.01,2013-12-02 21:38:00,
2013-12-02 15:43:00,33.1,31.3,29.56,East,91,10.0,11.0,93,0.00,,SKC,0.01,VWS V14.01,2013-12-02 21:43:00,
2013-12-02 15:48:00,33.1,31.3,29.56,East,91,10.0,11.0,93,0.00,,SKC,0.01,VWS V14.01,2013-12-02 21:48:00,
2013-12-02 15:53:00,33.1,31.3,29.56,East,88,9.0,13.0,93,0.00,,SKC,0.01,VWS V14.01,2013-12-02 21:53:00,
2013-12-02 15:58:00,33.0,31.2,29.56,East,89,9.0,13.0,93,0.00,,SKC,0.01,VWS V14.01,2013-12-02 21:58:00,
2013-12-02 16:00:00,33.0,31.2,29.56,East,90,7.0,13.0,93,0.00,,SKC,0.01,VWS V14.01,2013-12-02 22:00:00,
2013-12-02 16:03:00,33.0,31.2,29.56,East,90,11.0,12.0,93,0.00,,SKC,0.01,VWS V14.01,2013-12-02 22:03:00,
2013-12-02 16:08:00,32.8,31.0,29.56,East,90,10.0,13.0,93,0.00,,SKC,0.01,VWS V14.01,2013-12-02 22:08:00,
2013-12-02 16:13:00,32.8,31.0,29.56,East,92,11.0,13.0,93,0.00,,SKC,0.01,VWS V14.01,2013-12-02 22:13:00,
2013-12-02 16:18:00,32.6,30.8,29.56,East,92,9.0,13.0,93,0.00,,SKC,0.01,VWS V14.01,2013-12-02 22:18:00,
2013-12-02 16:23:00,32.5,31.0,29.56,East,92,8.0,13.0,94,0.00,,SKC,0.01,VWS V14.01,2013-12-02 22:23:00,
2013-12-02 16:28:00,32.5,31.0,29.56,East,92,7.0,13.0,94,0.00,,SKC,0.01,VWS V14.01,2013-12-02 22:28:00,
2013-12-02 16:30:00,32.4,30.9,29.56,East,92,9.0,13.0,94,0.00,,SKC,0.01,VWS V14.01,2013-12-02 22:30:00,
2013-12-02 16:33:00,32.4,30.9,29.56,East,91,7.0,11.0,94,0.00,,SKC,0.01,VWS V14.01,2013-12-02 22:33:00,
2013-12-02 16:38:00,32.3,30.8,29.56,East,91,8.0,11.0,94,0.00,,SKC,0.01,VWS V14.01,2013-12-02 22:38:00,
2013-12-02 16:43:00,32.3,30.8,29.56,East,91,9.0,11.0,94,0.00,,SKC,0.01,VWS V14.01,2013-12-02 22:43:00,
2013-12-02 16:48:00,32.2,30.7,29.56,East,91,6.0,11.0,94,0.00,,SKC,0.01,VWS V14.01,2013-12-02 22:48:00,
2013-12-02 16:53:00,32.1,30.6,29.56,East,91,6.0,11.0,94,0.00,,SKC,0.01,VWS V14.01,2013-12-02 22:53:00,
2013-12-02 16:58:00,32.1,30.6,29.56,East,91,8.0,11.0,94,0.00,,SKC,0.01,VWS V14.01,2013-12-02 22:58:00,
2013-12-02 17:00:00,32.1,30.6,29.56,East,91,7.0,11.0,94,0.00,,SKC,0.01,VWS V14.01,2013-12-02 23:00:00,
2013-12-02 17:03:00,32.1,30.6,29.56,East,91,7.0,8.0,94,0.00,,SKC,0.01,VWS V14.01,2013-12-02 23:03:00,
2013-12-02 17:08:00,32.1,30.6,29.56,East,91,9.0,9.0,94,0.00,,SKC,0.01,VWS V14.01,2013-12-02 23:08:00,
2013-12-02 17:13:00,32.1,30.8,29.56,East,91,9.0,10.0,95,0.00,,SKC,0.01,VWS V14.01,2013-12-02 23:13:00,
2013-12-02 17:19:00,32.0,30.7,29.56,East,92,9.0,12.0,95,0.00,,SKC,0.01,VWS V14.01,2013-12-02 23:19:00,
2013-12-02 17:24:00,32.0,30.7,29.56,East,92,6.0,12.0,95,0.00,,SKC,0.01,VWS V14.01,2013-12-02 23:24:00,
2013-12-02 17:29:00,32.0,30.7,29.55,East,92,6.0,12.0,95,0.00,,SKC,0.01,VWS V14.01,2013-12-02 23:29:00,
2013-12-02 17:30:00,32.0,30.7,29.55,East,92,7.0,12.0,95,0.00,,SKC,0.01,VWS V14.01,2013-12-02 23:30:00,
2013-12-02 17:34:00,31.9,30.6,29.55,East,90,8.0,11.0,95,0.00,,SKC,0.01,VWS V14.01,2013-12-02 23:34:00,
2013-12-02 17:39:00,32.0,30.7,29.55,East,89,7.0,11.0,95,0.00,,SKC,0.01,VWS V14.01,2013-12-02 23:39:00,
2013-12-02 17:44:00,31.9,30.6,29.55,East,88,8.0,11.0,95,0.00,,SKC,0.01,VWS V14.01,2013-12-02 23:44:00,
2013-12-02 17:49:00,32.0,30.7,29.55,East,89,9.0,11.0,95,0.00,,SKC,0.01,VWS V14.01,2013-12-02 23:49:00,
2013-12-02 17:54:00,32.0,30.7,29.55,East,89,12.0,12.0,95,0.00,,SKC,0.01,VWS V14.01,2013-12-02 23:54:00,
2013-12-02 17:59:00,32.0,30.7,29.55,East,91,9.0,14.0,95,0.00,,SKC,0.01,VWS V14.01,2013-12-02 23:59:00,
2013-12-02 18:00:00,32.0,30.7,29.55,East,92,10.0,14.0,95,0.00,,SKC,0.01,VWS V14.01,2013-12-03 00:00:00,
2013-12-02 18:04:00,31.9,30.6,29.54,East,92,9.0,13.0,95,0.00,,SKC,0.01,VWS V14.01,2013-12-03 00:04:00,
2013-12-02 18:09:00,31.9,30.6,29.54,East,92,10.0,15.0,95,0.00,,SKC,0.01,VWS V14.01,2013-12-03 00:09:00,
2013-12-02 18:14:00,31.9,30.6,29.54,East,92,11.0,15.0,95,0.00,,SKC,0.01,VWS V14.01,2013-12-03 00:14:00,
2013-12-02 18:19:00,31.9,30.6,29.54,East,92,10.0,15.0,95,0.00,,SKC,0.01,VWS V14.01,2013-12-03 00:19:00,
2013-12-02 18:24:00,31.9,30.6,29.54,East,92,11.0,15.0,95,0.00,,SKC,0.01,VWS V14.01,2013-12-03 00:24:00,
2013-12-02 18:29:00,31.9,30.6,29.54,East,92,12.0,15.0,95,0.00,,SKC,0.01,VWS V14.01,2013-12-03 00:29:00,
2013-12-02 18:30:00,31.9,30.6,29.54,East,92,14.0,15.0,95,0.00,,SKC,0.01,VWS V14.01,2013-12-03 00:30:00,
2013-12-02 18:34:00,31.9,30.6,29.54,East,92,9.0,15.0,95,0.00,,SKC,0.01,VWS V14.01,2013-12-03 00:34:00,
2013-12-02 18:39:00,31.9,30.6,29.54,East,92,10.0,15.0,95,0.00,,SKC,0.01,VWS V14.01,2013-12-03 00:39:00,
2013-12-02 18:44:00,32.0,30.7,29.55,East,92,9.0,15.0,95,0.00,,SKC,0.01,VWS V14.01,2013-12-03 00:44:00,
2013-12-02 18:49:00,32.0,30.7,29.54,East,92,7.0,15.0,95,0.00,,SKC,0.01,VWS V14.01,2013-12-03 00:49:00,
2013-12-02 18:54:00,32.0,30.7,29.54,East,92,8.0,15.0,95,0.00,,SKC,0.01,VWS V14.01,2013-12-03 00:54:00,
2013-12-02 18:59:00,32.0,30.7,29.55,East,92,9.0,15.0,95,0.00,,SKC,0.01,VWS V14.01,2013-12-03 00:59:00,
2013-12-02 19:00:00,32.0,30.7,29.55,East,92,8.0,15.0,95,0.00,,SKC,0.01,VWS V14.01,2013-12-03 01:00:00,
2013-12-02 19:04:00,32.0,30.7,29.55,East,92,9.0,13.0,95,0.00,,SKC,0.01,VWS V14.01,2013-12-03 01:04:00,
2013-12-02 19:09:00,32.1,30.8,29.55,East,92,7.0,13.0,95,0.00,,SKC,0.01,VWS V14.01,2013-12-03 01:09:00,
2013-12-02 19:14:00,32.0,30.7,29.55,East,93,7.0,13.0,95,0.00,,SKC,0.01,VWS V14.01,2013-12-03 01:14:00,
2013-12-02 19:19:00,32.0,30.7,29.55,East,93,7.0,13.0,95,0.00,,SKC,0.01,VWS V14.01,2013-12-03 01:19:00,
2013-12-02 19:24:00,32.0,30.7,29.55,East,93,8.0,13.0,95,0.00,,SKC,0.01,VWS V14.01,2013-12-03 01:24:00,
2013-12-02 19:29:00,32.0,30.7,29.55,East,93,8.0,13.0,95,0.00,,SKC,0.01,VWS V14.01,2013-12-03 01:29:00,
2013-12-02 19:30:00,32.0,30.7,29.55,East,92,8.0,13.0,95,0.00,,SKC,0.01,VWS V14.01,2013-12-03 01:30:00,
2013-12-02 19:34:00,32.0,30.7,29.55,East,93,8.0,10.0,95,0.00,,SKC,0.01,VWS V14.01,2013-12-03 01:34:00,
2013-12-02 19:39:00,32.0,30.7,29.55,East,93,6.0,10.0,95,0.00,,SKC,0.01,VWS V14.01,2013-12-03 01:39:00,
2013-12-02 19:45:00,32.0,30.7,29.56,East,93,8.0,10.0,95,0.00,,SKC,0.01,VWS V14.01,2013-12-03 01:45:00,
2013-12-02 19:50:00,32.1,30.8,29.56,East,93,10.0,10.0,95,0.00,,SKC,0.01,VWS V14.01,2013-12-03 01:50:00,
2013-12-02 19:55:00,32.1,30.8,29.55,East,93,8.0,10.0,95,0.00,,SKC,0.01,VWS V14.01,2013-12-03 01:55:00,
2013-12-02 20:00:00,32.1,30.8,29.55,East,93,7.0,11.0,95,0.00,,SKC,0.01,VWS V14.01,2013-12-03 02:00:00,
2013-12-02 20:05:00,32.1,30.8,29.55,East,93,8.0,9.0,95,0.00,,SKC,0.01,VWS V14.01,2013-12-03 02:05:00,
2013-12-02 20:10:00,32.1,30.8,29.55,East,93,8.0,11.0,95,0.00,,SKC,0.01,VWS V14.01,2013-12-03 02:10:00,
2013-12-02 20:15:00,32.1,30.8,29.55,East,93,9.0,11.0,95,0.00,,SKC,0.01,VWS V14.01,2013-12-03 02:15:00,
2013-12-02 20:20:00,32.1,30.8,29.55,East,93,7.0,11.0,95,0.00,,SKC,0.01,VWS V14.01,2013-12-03 02:20:00,
2013-12-02 20:25:00,32.1,30.8,29.55,East,93,8.0,11.0,95,0.00,,SKC,0.01,VWS V14.01,2013-12-03 02:25:00,
2013-12-02 20:30:00,32.3,31.0,29.55,East,93,7.0,11.0,95,0.00,,SKC,0.01,VWS V14.01,2013-12-03 02:30:00,
2013-12-02 20:35:00,32.2,30.9,29.55,East,93,7.0,10.0,95,0.00,,SKC,0.01,VWS V14.01,2013-12-03 02:35:00,
2013-12-02 20:40:00,32.1,30.8,29.55,East,93,8.0,10.0,95,0.00,,SKC,0.01,VWS V14.01,2013-12-03 02:40:00,
2013-12-02 20:45:00,32.1,30.8,29.55,East,93,9.0,12.0,95,0.00,,SKC,0.01,VWS V14.01,2013-12-03 02:45:00,
2013-12-02 20:50:00,32.2,30.9,29.55,East,93,7.0,12.0,95,0.00,,SKC,0.01,VWS V14.01,2013-12-03 02:50:00,
2013-12-02 20:55:00,32.1,30.8,29.55,East,93,8.0,12.0,95,0.00,,SKC,0.01,VWS V14.01,2013-12-03 02:55:00,
2013-12-02 21:00:00,32.1,30.8,29.55,East,93,7.0,12.0,95,0.00,,SKC,0.01,VWS V14.01,2013-12-03 03:00:00,
2013-12-02 21:05:00,32.1,30.8,29.55,East,93,7.0,9.0,95,0.00,,SKC,0.01,VWS V14.01,2013-12-03 03:05:00,
2013-12-02 21:10:00,32.1,30.8,29.55,East,93,7.0,9.0,95,0.00,,SKC,0.01,VWS V14.01,2013-12-03 03:10:00,
2013-12-02 21:15:00,32.1,30.8,29.55,East,93,8.0,9.0,95,0.00,,SKC,0.01,VWS V14.01,2013-12-03 03:15:00,
2013-12-02 21:20:00,32.1,30.8,29.55,East,93,8.0,9.0,95,0.00,,SKC,0.01,VWS V14.01,2013-12-03 03:20:00,
2013-12-02 21:25:00,32.1,30.8,29.55,East,93,8.0,10.0,95,0.00,,SKC,0.01,VWS V14.01,2013-12-03 03:25:00,
2013-12-02 21:30:00,32.1,30.8,29.55,East,94,7.0,10.0,95,0.00,,SKC,0.01,VWS V14.01,2013-12-03 03:30:00,
2013-12-02 21:35:00,32.1,30.8,29.54,East,93,7.0,9.0,95,0.00,,SKC,0.01,VWS V14.01,2013-12-03 03:35:00,
2013-12-02 21:40:00,32.1,30.8,29.53,East,94,8.0,9.0,95,0.00,,SKC,0.01,VWS V14.01,2013-12-03 03:40:00,
2013-12-02 21:45:00,32.2,30.9,29.53,East,93,9.0,11.0,95,0.00,,SKC,0.01,VWS V14.01,2013-12-03 03:45:00,
2013-12-02 21:50:00,32.2,30.9,29.53,East,93,7.0,11.0,95,0.00,,SKC,0.01,VWS V14.01,2013-12-03 03:50:00,
2013-12-02 21:55:00,32.2,30.9,29.53,East,94,9.0,11.0,95,0.00,,SKC,0.01,VWS V14.01,2013-12-03 03:55:00,
2013-12-02 22:00:00,32.2,30.9,29.54,East,94,8.0,11.0,95,0.00,,SKC,0.01,VWS V14.01,2013-12-03 04:00:00,
2013-12-02 22:05:00,32.3,31.0,29.53,East,94,8.0,9.0,95,0.00,,SKC,0.01,VWS V14.01,2013-12-03 04:05:00,
2013-12-02 22:10:00,32.3,31.0,29.53,East,94,6.0,10.0,95,0.00,,SKC,0.01,VWS V14.01,2013-12-03 04:10:00,
2013-12-02 22:15:00,32.3,31.0,29.53,East,94,7.0,10.0,95,0.00,,SKC,0.01,VWS V14.01,2013-12-03 04:15:00,
2013-12-02 22:20:00,32.3,31.0,29.53,East,94,9.0,10.0,95,0.00,,SKC,0.01,VWS V14.01,2013-12-03 04:20:00,
2013-12-02 22:25:00,32.3,31.0,29.53,East,94,8.0,11.0,95,0.00,,SKC,0.01,VWS V14.01,2013-12-03 04:25:00,
2013-12-02 22:30:00,32.3,31.0,29.53,East,94,8.0,11.0,95,0.00,,SKC,0.01,VWS V14.01,2013-12-03 04:30:00,
2013-12-02 22:36:00,32.3,31.0,29.54,East,94,5.0,8.0,95,0.00,,SKC,0.01,VWS V14.01,2013-12-03 04:36:00,
2013-12-02 22:41:00,32.3,31.0,29.54,East,94,6.0,10.0,95,0.00,,SKC,0.01,VWS V14.01,2013-12-03 04:41:00,
2013-12-02 22:46:00,32.3,31.0,29.54,East,94,7.0,10.0,95,0.00,,SKC,0.01,VWS V14.01,2013-12-03 04:46:00,
2013-12-02 22:51:00,32.4,31.4,29.54,East,94,7.0,10.0,96,0.00,,SKC,0.01,VWS V14.01,2013-12-03 04:51:00,
2013-12-02 22:56:00,32.4,31.4,29.54,East,94,8.0,10.0,96,0.00,,SKC,0.01,VWS V14.01,2013-12-03 04:56:00,
2013-12-02 23:00:00,32.4,31.4,29.54,East,94,7.0,10.0,96,0.00,,SKC,0.01,VWS V14.01,2013-12-03 05:00:00,
2013-12-02 23:01:00,32.4,31.4,29.54,East,94,8.0,10.0,96,0.00,,SKC,0.01,VWS V14.01,2013-12-03 05:01:00,
2013-12-02 23:02:00,32.4,31.4,29.54,East,94,7.0,7.0,96,0.00,,SKC,0.01,VWS V14.01,2013-12-03 05:02:00,
2013-12-02 23:03:00,32.4,31.4,29.54,East,94,7.0,8.0,96,0.00,,SKC,0.01,VWS V14.01,2013-12-03 05:03:00,
2013-12-02 23:05:00,32.3,31.0,29.54,East,94,8.0,8.0,95,0.00,,SKC,0.01,VWS V14.01,2013-12-03 05:05:00,
2013-12-02 23:10:00,32.4,31.4,29.54,East,94,5.0,9.0,96,0.00,,SKC,0.01,VWS V14.01,2013-12-03 05:10:00,
2013-12-02 23:15:00,32.4,31.4,29.55,East,94,7.0,9.0,96,0.00,,SKC,0.01,VWS V14.01,2013-12-03 05:15:00,
2013-12-02 23:20:00,32.3,31.0,29.54,East,94,7.0,9.0,95,0.00,,SKC,0.01,VWS V14.01,2013-12-03 05:20:00,
2013-12-02 23:25:00,32.3,31.0,29.55,East,94,6.0,9.0,95,0.00,,SKC,0.01,VWS V14.01,2013-12-03 05:25:00,
2013-12-02 23:30:00,32.3,31.0,29.54,East,94,5.0,9.0,95,0.00,,SKC,0.01,VWS V14.01,2013-12-03 05:30:00,
2013-12-02 23:35:00,32.3,31.0,29.54,East,94,5.0,7.0,95,0.00,,SKC,0.01,VWS V14.01,2013-12-03 05:35:00,
2013-12-02 23:40:00,32.3,31.0,29.54,East,94,6.0,8.0,95,0.00,,SKC,0.01,VWS V14.01,2013-12-03 05:40:00,
2013-12-02 23:45:00,32.3,31.0,29.54,East,94,6.0,8.0,95,0.00,,SKC,0.01,VWS V14.01,2013-12-03 05:45:00,
2013-12-02 23:50:00,32.3,31.0,29.54,East,94,6.0,8.0,95,0.00,,SKC,0.01,VWS V14.01,2013-12-03 05:50:00,
2013-12-02 23:55:00,32.3,31.0,29.54,East,94,6.0,8.0,95,0.00,,SKC,0.01,VWS V14.01,2013-12-03 05:55:00,